sensor_id;sensor_type;location;lat;lon;timestamp;temperature;humidity
24224;DHT22;12359;49.716;9.212;2022-08-21T00:00:26;17.10;99.90
24224;DHT22;12359;49.716;9.212;2022-08-21T00:02:56;17.00;1.00
24224;DHT22;12359;49.716;9.212;2022-08-21T00:05:24;17.00;1.00
24224;DHT22;12359;49.716;9.212;2022-08-21T00:07:50;17.00;1.00
24224;DHT22;12359;49.716;9.212;2022-08-21T00:10:16;16.90;25.00
24224;DHT22;12359;49.716;9.212;2022-08-21T00:12:44;16.80;51.60
24224;DHT22;12359;49.716;9.212;2022-08-21T00:15:14;16.80;99.90
24224;DHT22;12359;49.716;9.212;2022-08-21T00:17:40;16.70;99.90
24224;DHT22;12359;49.716;9.212;2022-08-21T00:20:08;16.70;99.90
24224;DHT22;12359;49.716;9.212;2022-08-21T00:22:35;16.70;99.90
24224;DHT22;12359;49.716;9.212;2022-08-21T00:25:01;16.60;99.90
24224;DHT22;12359;49.716;9.212;2022-08-21T00:27:27;16.60;99.90
24224;DHT22;12359;49.716;9.212;2022-08-21T00:29:53;16.60;99.90
24224;DHT22;12359;49.716;9.212;2022-08-21T00:32:24;16.60;99.90
24224;DHT22;12359;49.716;9.212;2022-08-21T00:34:50;16.50;99.90
24224;DHT22;12359;49.716;9.212;2022-08-21T00:37:16;16.50;99.90
24224;DHT22;12359;49.716;9.212;2022-08-21T00:39:42;16.40;99.90
24224;DHT22;12359;49.716;9.212;2022-08-21T00:42:08;16.40;99.90
24224;DHT22;12359;49.716;9.212;2022-08-21T00:44:34;16.30;99.90
24224;DHT22;12359;49.716;9.212;2022-08-21T00:47:00;16.30;99.90
24224;DHT22;12359;49.716;9.212;2022-08-21T00:49:26;16.30;99.90
24224;DHT22;12359;49.716;9.212;2022-08-21T00:51:57;16.20;99.90
24224;DHT22;12359;49.716;9.212;2022-08-21T00:54:25;16.20;99.90
24224;DHT22;12359;49.716;9.212;2022-08-21T00:56:58;16.10;99.90
24224;DHT22;12359;49.716;9.212;2022-08-21T00:59:26;16.10;99.90
24224;DHT22;12359;49.716;9.212;2022-08-21T01:01:53;16.00;99.90
24224;DHT22;12359;49.716;9.212;2022-08-21T01:04:19;16.00;1.00
24224;DHT22;12359;49.716;9.212;2022-08-21T01:06:46;15.90;1.00
24224;DHT22;12359;49.716;9.212;2022-08-21T01:09:12;15.80;1.00
24224;DHT22;12359;49.716;9.212;2022-08-21T01:11:39;15.80;1.00
24224;DHT22;12359;49.716;9.212;2022-08-21T01:14:07;15.80;1.00
24224;DHT22;12359;49.716;9.212;2022-08-21T01:16:33;15.80;1.00
24224;DHT22;12359;49.716;9.212;2022-08-21T01:18:58;15.70;1.00
24224;DHT22;12359;49.716;9.212;2022-08-21T01:21:26;15.60;1.00
24224;DHT22;12359;49.716;9.212;2022-08-21T01:23:53;15.60;1.00
24224;DHT22;12359;49.716;9.212;2022-08-21T01:26:25;15.60;1.00
24224;DHT22;12359;49.716;9.212;2022-08-21T01:31:29;15.50;1.00
24224;DHT22;12359;49.716;9.212;2022-08-21T01:33:57;15.40;1.00
24224;DHT22;12359;49.716;9.212;2022-08-21T01:36:23;15.40;1.00
24224;DHT22;12359;49.716;9.212;2022-08-21T01:38:49;15.40;1.00
24224;DHT22;12359;49.716;9.212;2022-08-21T01:41:16;15.40;1.00
24224;DHT22;12359;49.716;9.212;2022-08-21T01:43:42;15.40;1.00
24224;DHT22;12359;49.716;9.212;2022-08-21T01:46:09;15.30;1.00
24224;DHT22;12359;49.716;9.212;2022-08-21T01:48:35;15.30;1.00
24224;DHT22;12359;49.716;9.212;2022-08-21T01:51:01;15.20;1.00
24224;DHT22;12359;49.716;9.212;2022-08-21T01:53:27;15.20;1.00
24224;DHT22;12359;49.716;9.212;2022-08-21T01:55:53;15.20;1.00
24224;DHT22;12359;49.716;9.212;2022-08-21T01:58:19;15.10;1.00
24224;DHT22;12359;49.716;9.212;2022-08-21T02:00:44;15.10;1.00
24224;DHT22;12359;49.716;9.212;2022-08-21T02:03:10;15.10;1.00
24224;DHT22;12359;49.716;9.212;2022-08-21T02:05:36;15.10;1.00
24224;DHT22;12359;49.716;9.212;2022-08-21T02:08:01;15.00;1.00
24224;DHT22;12359;49.716;9.212;2022-08-21T02:10:30;15.00;1.00
24224;DHT22;12359;49.716;9.212;2022-08-21T02:12:56;15.00;1.00
24224;DHT22;12359;49.716;9.212;2022-08-21T02:15:23;15.00;1.00
24224;DHT22;12359;49.716;9.212;2022-08-21T02:17:51;14.90;1.00
24224;DHT22;12359;49.716;9.212;2022-08-21T02:20:26;14.90;1.00
24224;DHT22;12359;49.716;9.212;2022-08-21T02:22:54;14.80;1.00
24224;DHT22;12359;49.716;9.212;2022-08-21T02:25:22;14.80;1.00
24224;DHT22;12359;49.716;9.212;2022-08-21T02:27:48;14.70;1.00
24224;DHT22;12359;49.716;9.212;2022-08-21T02:30:23;14.70;1.00
24224;DHT22;12359;49.716;9.212;2022-08-21T02:32:49;14.70;1.00
24224;DHT22;12359;49.716;9.212;2022-08-21T02:35:15;14.60;1.00
24224;DHT22;12359;49.716;9.212;2022-08-21T02:37:49;14.60;1.00
24224;DHT22;12359;49.716;9.212;2022-08-21T02:40:16;14.60;2.60
24224;DHT22;12359;49.716;9.212;2022-08-21T02:42:42;14.50;3.60
24224;DHT22;12359;49.716;9.212;2022-08-21T02:45:10;14.50;1.90
24224;DHT22;12359;49.716;9.212;2022-08-21T02:47:36;14.50;2.30
24224;DHT22;12359;49.716;9.212;2022-08-21T02:50:03;14.40;1.00
24224;DHT22;12359;49.716;9.212;2022-08-21T02:52:29;14.40;1.40
24224;DHT22;12359;49.716;9.212;2022-08-21T02:54:54;14.40;1.00
24224;DHT22;12359;49.716;9.212;2022-08-21T02:57:20;14.40;1.00
24224;DHT22;12359;49.716;9.212;2022-08-21T02:59:46;14.40;1.00
24224;DHT22;12359;49.716;9.212;2022-08-21T03:02:12;14.40;3.60
24224;DHT22;12359;49.716;9.212;2022-08-21T03:04:38;14.30;7.40
24224;DHT22;12359;49.716;9.212;2022-08-21T03:07:04;14.40;5.50
24224;DHT22;12359;49.716;9.212;2022-08-21T03:09:29;14.40;8.80
24224;DHT22;12359;49.716;9.212;2022-08-21T03:11:55;14.30;10.60
24224;DHT22;12359;49.716;9.212;2022-08-21T03:14:21;14.30;12.70
24224;DHT22;12359;49.716;9.212;2022-08-21T03:16:46;14.30;13.70
24224;DHT22;12359;49.716;9.212;2022-08-21T03:19:12;14.30;15.70
24224;DHT22;12359;49.716;9.212;2022-08-21T03:21:38;14.30;9.50
24224;DHT22;12359;49.716;9.212;2022-08-21T03:24:04;14.20;6.80
24224;DHT22;12359;49.716;9.212;2022-08-21T03:26:30;14.20;8.10
24224;DHT22;12359;49.716;9.212;2022-08-21T03:28:56;14.20;9.20
24224;DHT22;12359;49.716;9.212;2022-08-21T03:31:23;14.10;6.50
24224;DHT22;12359;49.716;9.212;2022-08-21T03:33:49;14.00;8.10
24224;DHT22;12359;49.716;9.212;2022-08-21T03:36:16;14.00;8.30
24224;DHT22;12359;49.716;9.212;2022-08-21T03:38:42;14.00;13.20
24224;DHT22;12359;49.716;9.212;2022-08-21T03:41:08;13.90;16.40
24224;DHT22;12359;49.716;9.212;2022-08-21T03:43:34;14.00;18.40
24224;DHT22;12359;49.716;9.212;2022-08-21T03:46:01;14.00;18.30
24224;DHT22;12359;49.716;9.212;2022-08-21T03:48:29;14.00;16.80
24224;DHT22;12359;49.716;9.212;2022-08-21T03:50:54;13.90;15.90
24224;DHT22;12359;49.716;9.212;2022-08-21T03:53:20;13.90;16.00
24224;DHT22;12359;49.716;9.212;2022-08-21T03:55:47;13.80;19.30
24224;DHT22;12359;49.716;9.212;2022-08-21T03:58:19;13.80;21.90
24224;DHT22;12359;49.716;9.212;2022-08-21T04:00:47;13.90;24.10
24224;DHT22;12359;49.716;9.212;2022-08-21T04:03:15;13.90;23.20
24224;DHT22;12359;49.716;9.212;2022-08-21T04:05:41;13.80;22.80
24224;DHT22;12359;49.716;9.212;2022-08-21T04:08:07;13.80;24.20
24224;DHT22;12359;49.716;9.212;2022-08-21T04:10:35;13.80;26.70
24224;DHT22;12359;49.716;9.212;2022-08-21T04:13:02;13.80;25.40
24224;DHT22;12359;49.716;9.212;2022-08-21T04:15:28;13.70;24.40
24224;DHT22;12359;49.716;9.212;2022-08-21T04:17:54;13.80;23.80
24224;DHT22;12359;49.716;9.212;2022-08-21T04:20:20;13.70;21.40
24224;DHT22;12359;49.716;9.212;2022-08-21T04:22:47;13.70;20.80
24224;DHT22;12359;49.716;9.212;2022-08-21T04:25:15;13.70;17.80
24224;DHT22;12359;49.716;9.212;2022-08-21T04:27:41;13.70;21.00
24224;DHT22;12359;49.716;9.212;2022-08-21T04:30:08;13.60;20.70
24224;DHT22;12359;49.716;9.212;2022-08-21T04:32:36;13.70;19.60
24224;DHT22;12359;49.716;9.212;2022-08-21T04:35:05;13.60;17.80
24224;DHT22;12359;49.716;9.212;2022-08-21T04:37:31;13.60;16.80
24224;DHT22;12359;49.716;9.212;2022-08-21T04:39:57;13.60;20.50
24224;DHT22;12359;49.716;9.212;2022-08-21T04:42:25;13.60;23.70
24224;DHT22;12359;49.716;9.212;2022-08-21T04:44:51;13.60;23.30
24224;DHT22;12359;49.716;9.212;2022-08-21T04:47:17;13.70;22.20
24224;DHT22;12359;49.716;9.212;2022-08-21T04:49:44;13.60;22.20
24224;DHT22;12359;49.716;9.212;2022-08-21T04:52:10;13.60;27.10
24224;DHT22;12359;49.716;9.212;2022-08-21T04:54:37;13.60;27.00
24224;DHT22;12359;49.716;9.212;2022-08-21T04:57:06;13.60;29.40
24224;DHT22;12359;49.716;9.212;2022-08-21T04:59:41;13.80;30.10
24224;DHT22;12359;49.716;9.212;2022-08-21T05:02:09;14.00;29.80
24224;DHT22;12359;49.716;9.212;2022-08-21T05:04:39;14.20;26.30
24224;DHT22;12359;49.716;9.212;2022-08-21T05:07:12;14.40;23.20
24224;DHT22;12359;49.716;9.212;2022-08-21T05:09:41;14.70;12.30
24224;DHT22;12359;49.716;9.212;2022-08-21T05:12:07;15.00;1.00
24224;DHT22;12359;49.716;9.212;2022-08-21T05:14:33;15.30;1.00
24224;DHT22;12359;49.716;9.212;2022-08-21T05:16:59;15.60;1.00
24224;DHT22;12359;49.716;9.212;2022-08-21T05:19:24;15.90;1.00
24224;DHT22;12359;49.716;9.212;2022-08-21T05:21:51;16.10;99.90
24224;DHT22;12359;49.716;9.212;2022-08-21T05:24:17;15.90;1.00
24224;DHT22;12359;49.716;9.212;2022-08-21T05:26:44;16.00;1.00
24224;DHT22;12359;49.716;9.212;2022-08-21T05:29:10;15.90;1.00
24224;DHT22;12359;49.716;9.212;2022-08-21T05:31:37;15.80;1.00
24224;DHT22;12359;49.716;9.212;2022-08-21T05:34:03;15.70;1.00
24224;DHT22;12359;49.716;9.212;2022-08-21T05:36:29;15.60;1.00
24224;DHT22;12359;49.716;9.212;2022-08-21T05:38:54;15.40;1.00
24224;DHT22;12359;49.716;9.212;2022-08-21T05:41:20;15.40;1.00
24224;DHT22;12359;49.716;9.212;2022-08-21T05:43:46;15.50;1.00
24224;DHT22;12359;49.716;9.212;2022-08-21T05:46:12;15.50;1.00
24224;DHT22;12359;49.716;9.212;2022-08-21T05:48:37;15.60;1.00
24224;DHT22;12359;49.716;9.212;2022-08-21T05:51:09;15.50;1.00
24224;DHT22;12359;49.716;9.212;2022-08-21T05:53:36;15.50;1.00
24224;DHT22;12359;49.716;9.212;2022-08-21T05:56:03;15.50;1.00
24224;DHT22;12359;49.716;9.212;2022-08-21T05:58:31;15.50;1.00
24224;DHT22;12359;49.716;9.212;2022-08-21T06:00:57;15.60;1.00
24224;DHT22;12359;49.716;9.212;2022-08-21T06:03:26;15.80;1.00
24224;DHT22;12359;49.716;9.212;2022-08-21T06:05:53;16.30;1.00
24224;DHT22;12359;49.716;9.212;2022-08-21T06:08:19;17.00;1.00
24224;DHT22;12359;49.716;9.212;2022-08-21T06:10:47;17.70;99.90
24224;DHT22;12359;49.716;9.212;2022-08-21T06:13:14;18.70;99.90
24224;DHT22;12359;49.716;9.212;2022-08-21T06:15:40;19.50;99.90
24224;DHT22;12359;49.716;9.212;2022-08-21T06:18:07;20.60;1.00
24224;DHT22;12359;49.716;9.212;2022-08-21T06:20:32;21.60;99.90
24224;DHT22;12359;49.716;9.212;2022-08-21T06:22:58;22.20;1.00
24224;DHT22;12359;49.716;9.212;2022-08-21T06:25:24;23.00;37.10
24224;DHT22;12359;49.716;9.212;2022-08-21T06:27:50;23.10;1.00
24224;DHT22;12359;49.716;9.212;2022-08-21T06:30:17;23.30;99.90
24224;DHT22;12359;49.716;9.212;2022-08-21T06:32:43;23.90;99.90
24224;DHT22;12359;49.716;9.212;2022-08-21T06:35:10;24.10;99.90
24224;DHT22;12359;49.716;9.212;2022-08-21T06:37:37;24.80;99.90
24224;DHT22;12359;49.716;9.212;2022-08-21T06:40:04;25.20;99.90
24224;DHT22;12359;49.716;9.212;2022-08-21T06:42:30;25.70;90.00
24224;DHT22;12359;49.716;9.212;2022-08-21T06:44:57;25.60;48.40
24224;DHT22;12359;49.716;9.212;2022-08-21T06:47:22;25.80;24.90
24224;DHT22;12359;49.716;9.212;2022-08-21T06:49:48;25.90;15.70
24224;DHT22;12359;49.716;9.212;2022-08-21T06:52:14;26.10;9.20
24224;DHT22;12359;49.716;9.212;2022-08-21T06:54:40;26.10;1.00
24224;DHT22;12359;49.716;9.212;2022-08-21T06:57:06;26.70;1.00
24224;DHT22;12359;49.716;9.212;2022-08-21T06:59:32;26.70;1.00
24224;DHT22;12359;49.716;9.212;2022-08-21T07:01:58;27.40;1.00
24224;DHT22;12359;49.716;9.212;2022-08-21T07:04:25;27.70;1.00
24224;DHT22;12359;49.716;9.212;2022-08-21T07:06:50;27.80;1.00
24224;DHT22;12359;49.716;9.212;2022-08-21T07:09:16;27.50;1.00
24224;DHT22;12359;49.716;9.212;2022-08-21T07:11:44;27.80;1.00
24224;DHT22;12359;49.716;9.212;2022-08-21T07:14:10;28.20;1.00
24224;DHT22;12359;49.716;9.212;2022-08-21T07:16:36;28.40;1.00
24224;DHT22;12359;49.716;9.212;2022-08-21T07:19:02;28.10;1.00
24224;DHT22;12359;49.716;9.212;2022-08-21T07:21:28;28.20;1.00
24224;DHT22;12359;49.716;9.212;2022-08-21T07:23:54;28.60;1.00
24224;DHT22;12359;49.716;9.212;2022-08-21T07:26:22;28.20;1.00
24224;DHT22;12359;49.716;9.212;2022-08-21T07:28:48;28.00;1.00
24224;DHT22;12359;49.716;9.212;2022-08-21T07:31:17;28.40;1.00
24224;DHT22;12359;49.716;9.212;2022-08-21T07:33:44;28.20;1.00
24224;DHT22;12359;49.716;9.212;2022-08-21T07:36:11;28.40;1.00
24224;DHT22;12359;49.716;9.212;2022-08-21T07:38:36;28.50;1.00
24224;DHT22;12359;49.716;9.212;2022-08-21T07:41:10;28.60;1.00
24224;DHT22;12359;49.716;9.212;2022-08-21T07:43:38;29.20;1.00
24224;DHT22;12359;49.716;9.212;2022-08-21T07:46:04;29.00;1.00
24224;DHT22;12359;49.716;9.212;2022-08-21T07:48:29;29.40;1.00
24224;DHT22;12359;49.716;9.212;2022-08-21T07:50:55;29.80;1.00
24224;DHT22;12359;49.716;9.212;2022-08-21T07:53:21;29.80;1.00
24224;DHT22;12359;49.716;9.212;2022-08-21T07:55:47;29.90;1.00
24224;DHT22;12359;49.716;9.212;2022-08-21T07:58:13;29.60;1.00
24224;DHT22;12359;49.716;9.212;2022-08-21T08:00:39;29.60;1.00
24224;DHT22;12359;49.716;9.212;2022-08-21T08:03:05;29.20;1.00
24224;DHT22;12359;49.716;9.212;2022-08-21T08:05:32;29.50;1.00
24224;DHT22;12359;49.716;9.212;2022-08-21T08:07:58;29.30;1.00
24224;DHT22;12359;49.716;9.212;2022-08-21T08:10:24;29.50;1.00
24224;DHT22;12359;49.716;9.212;2022-08-21T08:12:51;29.40;1.00
24224;DHT22;12359;49.716;9.212;2022-08-21T08:15:19;29.20;1.00
24224;DHT22;12359;49.716;9.212;2022-08-21T08:17:45;29.20;1.00
24224;DHT22;12359;49.716;9.212;2022-08-21T08:20:13;29.30;1.00
24224;DHT22;12359;49.716;9.212;2022-08-21T08:22:39;29.60;1.00
24224;DHT22;12359;49.716;9.212;2022-08-21T08:25:08;29.70;1.00
24224;DHT22;12359;49.716;9.212;2022-08-21T08:27:34;30.10;1.00
24224;DHT22;12359;49.716;9.212;2022-08-21T08:30:00;30.30;1.00
24224;DHT22;12359;49.716;9.212;2022-08-21T08:32:26;30.70;1.00
24224;DHT22;12359;49.716;9.212;2022-08-21T08:34:51;30.70;1.00
24224;DHT22;12359;49.716;9.212;2022-08-21T08:37:19;30.50;1.00
24224;DHT22;12359;49.716;9.212;2022-08-21T08:39:45;30.60;1.00
24224;DHT22;12359;49.716;9.212;2022-08-21T08:42:13;30.40;1.00
24224;DHT22;12359;49.716;9.212;2022-08-21T08:44:45;30.30;1.00
24224;DHT22;12359;49.716;9.212;2022-08-21T08:47:13;30.50;1.00
24224;DHT22;12359;49.716;9.212;2022-08-21T08:49:53;30.50;1.00
24224;DHT22;12359;49.716;9.212;2022-08-21T08:52:33;30.60;1.00
24224;DHT22;12359;49.716;9.212;2022-08-21T08:55:16;30.70;1.00
24224;DHT22;12359;49.716;9.212;2022-08-21T08:57:46;30.70;1.00
24224;DHT22;12359;49.716;9.212;2022-08-21T09:00:17;30.90;1.00
24224;DHT22;12359;49.716;9.212;2022-08-21T09:02:44;30.90;1.00
24224;DHT22;12359;49.716;9.212;2022-08-21T09:05:25;31.00;1.00
24224;DHT22;12359;49.716;9.212;2022-08-21T09:09:12;31.20;1.00
24224;DHT22;12359;49.716;9.212;2022-08-21T09:11:27;31.30;1.00
24224;DHT22;12359;49.716;9.212;2022-08-21T09:19:39;31.80;1.00
24224;DHT22;12359;49.716;9.212;2022-08-21T09:22:19;31.70;1.00
24224;DHT22;12359;49.716;9.212;2022-08-21T09:27:33;31.50;99.90
24224;DHT22;12359;49.716;9.212;2022-08-21T09:29:59;30.90;99.90
24224;DHT22;12359;49.716;9.212;2022-08-21T09:32:30;31.00;99.90
24224;DHT22;12359;49.716;9.212;2022-08-21T09:37:28;31.80;99.90
24224;DHT22;12359;49.716;9.212;2022-08-21T09:39:55;32.00;99.90
24224;DHT22;12359;49.716;9.212;2022-08-21T09:42:31;32.20;99.90
24224;DHT22;12359;49.716;9.212;2022-08-21T09:45:26;32.70;99.90
24224;DHT22;12359;49.716;9.212;2022-08-21T09:47:52;32.80;99.90
24224;DHT22;12359;49.716;9.212;2022-08-21T09:50:25;32.90;99.90
24224;DHT22;12359;49.716;9.212;2022-08-21T09:52:57;32.50;99.90
24224;DHT22;12359;49.716;9.212;2022-08-21T09:55:36;31.70;99.90
24224;DHT22;12359;49.716;9.212;2022-08-21T09:58:31;30.70;99.90
24224;DHT22;12359;49.716;9.212;2022-08-21T10:00:59;30.00;99.90
24224;DHT22;12359;49.716;9.212;2022-08-21T10:03:26;29.70;99.90
24224;DHT22;12359;49.716;9.212;2022-08-21T10:06:01;30.40;99.90
24224;DHT22;12359;49.716;9.212;2022-08-21T10:08:31;31.20;99.90
24224;DHT22;12359;49.716;9.212;2022-08-21T10:30:41;32.70;99.90
24224;DHT22;12359;49.716;9.212;2022-08-21T10:34:14;32.50;99.90
24224;DHT22;12359;49.716;9.212;2022-08-21T10:36:25;32.40;99.90
24224;DHT22;12359;49.716;9.212;2022-08-21T10:39:05;32.70;99.90
24224;DHT22;12359;49.716;9.212;2022-08-21T10:47:38;33.00;99.90
24224;DHT22;12359;49.716;9.212;2022-08-21T10:56:17;32.50;99.90
24224;DHT22;12359;49.716;9.212;2022-08-21T10:59:07;31.30;99.90
24224;DHT22;12359;49.716;9.212;2022-08-21T11:04:30;30.50;99.90
24224;DHT22;12359;49.716;9.212;2022-08-21T11:07:06;31.00;99.90
24224;DHT22;12359;49.716;9.212;2022-08-21T11:09:32;31.20;99.90
24224;DHT22;12359;49.716;9.212;2022-08-21T11:14:58;31.80;99.90
24224;DHT22;12359;49.716;9.212;2022-08-21T11:17:50;32.40;99.90
24224;DHT22;12359;49.716;9.212;2022-08-21T11:20:40;31.90;99.90
24224;DHT22;12359;49.716;9.212;2022-08-21T11:23:14;31.00;99.90
24224;DHT22;12359;49.716;9.212;2022-08-21T11:25:45;30.40;99.90
24224;DHT22;12359;49.716;9.212;2022-08-21T11:28:31;30.00;99.90
24224;DHT22;12359;49.716;9.212;2022-08-21T11:38:57;31.80;99.90
24224;DHT22;12359;49.716;9.212;2022-08-21T11:41:30;32.30;99.90
24224;DHT22;12359;49.716;9.212;2022-08-21T11:52:52;31.20;99.90
24224;DHT22;12359;49.716;9.212;2022-08-21T11:55:34;30.40;99.90
24224;DHT22;12359;49.716;9.212;2022-08-21T11:58:20;29.90;99.90
24224;DHT22;12359;49.716;9.212;2022-08-21T12:01:03;29.60;99.90
24224;DHT22;12359;49.716;9.212;2022-08-21T12:03:33;29.90;99.90
24224;DHT22;12359;49.716;9.212;2022-08-21T12:06:26;30.30;99.90
24224;DHT22;12359;49.716;9.212;2022-08-21T12:08:58;30.90;99.90
24224;DHT22;12359;49.716;9.212;2022-08-21T12:11:25;31.30;99.90
24224;DHT22;12359;49.716;9.212;2022-08-21T12:16:37;32.00;99.90
24224;DHT22;12359;49.716;9.212;2022-08-21T12:19:06;32.20;99.90
24224;DHT22;12359;49.716;9.212;2022-08-21T12:21:33;32.30;99.90
24224;DHT22;12359;49.716;9.212;2022-08-21T12:24:19;32.30;99.90
24224;DHT22;12359;49.716;9.212;2022-08-21T12:29:28;32.20;99.90
24224;DHT22;12359;49.716;9.212;2022-08-21T12:32:26;32.40;99.90
24224;DHT22;12359;49.716;9.212;2022-08-21T12:35:15;31.80;99.90
24224;DHT22;12359;49.716;9.212;2022-08-21T12:37:56;31.20;99.90
24224;DHT22;12359;49.716;9.212;2022-08-21T12:41:06;30.80;99.90
24224;DHT22;12359;49.716;9.212;2022-08-21T12:43:41;30.40;99.90
24224;DHT22;12359;49.716;9.212;2022-08-21T12:46:19;30.60;99.90
24224;DHT22;12359;49.716;9.212;2022-08-21T12:48:54;30.90;99.90
24224;DHT22;12359;49.716;9.212;2022-08-21T12:51:29;30.80;99.90
24224;DHT22;12359;49.716;9.212;2022-08-21T12:53:58;30.50;99.90
24224;DHT22;12359;49.716;9.212;2022-08-21T12:56:26;30.20;99.90
24224;DHT22;12359;49.716;9.212;2022-08-21T12:59:01;30.20;99.90
24224;DHT22;12359;49.716;9.212;2022-08-21T13:01:35;29.80;99.90
24224;DHT22;12359;49.716;9.212;2022-08-21T13:04:10;30.30;99.90
24224;DHT22;12359;49.716;9.212;2022-08-21T13:06:42;30.70;99.90
24224;DHT22;12359;49.716;9.212;2022-08-21T13:09:11;30.30;99.90
24224;DHT22;12359;49.716;9.212;2022-08-21T13:11:40;30.00;99.90
24224;DHT22;12359;49.716;9.212;2022-08-21T13:14:31;29.70;99.90
24224;DHT22;12359;49.716;9.212;2022-08-21T13:16:57;29.40;99.90
24224;DHT22;12359;49.716;9.212;2022-08-21T13:19:23;29.40;99.90
24224;DHT22;12359;49.716;9.212;2022-08-21T13:21:50;29.60;99.90
24224;DHT22;12359;49.716;9.212;2022-08-21T13:24:19;29.40;99.90
24224;DHT22;12359;49.716;9.212;2022-08-21T13:26:47;29.50;99.90
24224;DHT22;12359;49.716;9.212;2022-08-21T13:29:16;29.50;99.90
24224;DHT22;12359;49.716;9.212;2022-08-21T13:31:51;29.50;99.90
24224;DHT22;12359;49.716;9.212;2022-08-21T13:34:20;29.50;99.90
24224;DHT22;12359;49.716;9.212;2022-08-21T13:36:49;29.50;99.90
24224;DHT22;12359;49.716;9.212;2022-08-21T13:39:18;29.70;99.90
24224;DHT22;12359;49.716;9.212;2022-08-21T13:41:47;29.60;99.90
24224;DHT22;12359;49.716;9.212;2022-08-21T13:46:40;29.50;99.90
24224;DHT22;12359;49.716;9.212;2022-08-21T13:49:06;29.70;99.90
24224;DHT22;12359;49.716;9.212;2022-08-21T13:51:34;29.80;99.90
24224;DHT22;12359;49.716;9.212;2022-08-21T13:54:00;30.00;99.90
24224;DHT22;12359;49.716;9.212;2022-08-21T13:58:55;30.50;99.90
24224;DHT22;12359;49.716;9.212;2022-08-21T14:03:53;30.70;99.90
24224;DHT22;12359;49.716;9.212;2022-08-21T14:06:22;31.00;99.90
24224;DHT22;12359;49.716;9.212;2022-08-21T14:08:59;30.90;99.90
24224;DHT22;12359;49.716;9.212;2022-08-21T14:11:28;30.70;99.90
24224;DHT22;12359;49.716;9.212;2022-08-21T14:14:01;30.30;99.90
24224;DHT22;12359;49.716;9.212;2022-08-21T14:16:41;29.90;99.90
24224;DHT22;12359;49.716;9.212;2022-08-21T14:21:43;29.30;99.90
24224;DHT22;12359;49.716;9.212;2022-08-21T14:26:56;28.90;99.90
24224;DHT22;12359;49.716;9.212;2022-08-21T14:29:26;28.80;99.90
24224;DHT22;12359;49.716;9.212;2022-08-21T14:31:55;28.60;99.90
24224;DHT22;12359;49.716;9.212;2022-08-21T14:34:23;28.60;99.90
24224;DHT22;12359;49.716;9.212;2022-08-21T14:36:50;28.70;99.90
24224;DHT22;12359;49.716;9.212;2022-08-21T14:39:16;29.00;99.90
24224;DHT22;12359;49.716;9.212;2022-08-21T14:41:42;29.20;99.90
24224;DHT22;12359;49.716;9.212;2022-08-21T14:44:09;29.30;99.90
24224;DHT22;12359;49.716;9.212;2022-08-21T14:46:36;29.50;99.90
24224;DHT22;12359;49.716;9.212;2022-08-21T14:49:02;29.50;99.90
24224;DHT22;12359;49.716;9.212;2022-08-21T14:51:28;29.60;99.90
24224;DHT22;12359;49.716;9.212;2022-08-21T14:53:54;29.60;99.90
24224;DHT22;12359;49.716;9.212;2022-08-21T14:56:20;29.60;99.90
24224;DHT22;12359;49.716;9.212;2022-08-21T14:58:48;29.70;99.90
24224;DHT22;12359;49.716;9.212;2022-08-21T15:01:16;29.70;99.90
24224;DHT22;12359;49.716;9.212;2022-08-21T15:03:44;29.80;99.90
24224;DHT22;12359;49.716;9.212;2022-08-21T15:06:11;29.90;99.90
24224;DHT22;12359;49.716;9.212;2022-08-21T15:08:37;29.70;99.90
24224;DHT22;12359;49.716;9.212;2022-08-21T15:11:04;29.60;99.90
24224;DHT22;12359;49.716;9.212;2022-08-21T15:13:31;29.60;99.90
24224;DHT22;12359;49.716;9.212;2022-08-21T15:15:57;29.60;99.90
24224;DHT22;12359;49.716;9.212;2022-08-21T15:18:25;29.50;99.90
24224;DHT22;12359;49.716;9.212;2022-08-21T15:20:51;29.60;99.90
24224;DHT22;12359;49.716;9.212;2022-08-21T15:23:18;29.50;99.90
24224;DHT22;12359;49.716;9.212;2022-08-21T15:25:45;29.50;99.90
24224;DHT22;12359;49.716;9.212;2022-08-21T15:28:12;29.50;99.90
24224;DHT22;12359;49.716;9.212;2022-08-21T15:30:40;29.40;99.90
24224;DHT22;12359;49.716;9.212;2022-08-21T15:33:06;29.30;99.90
24224;DHT22;12359;49.716;9.212;2022-08-21T15:35:32;29.40;99.90
24224;DHT22;12359;49.716;9.212;2022-08-21T15:37:58;29.30;99.90
24224;DHT22;12359;49.716;9.212;2022-08-21T15:40:24;29.30;99.90
24224;DHT22;12359;49.716;9.212;2022-08-21T15:42:53;29.20;99.90
24224;DHT22;12359;49.716;9.212;2022-08-21T15:45:20;29.10;99.90
24224;DHT22;12359;49.716;9.212;2022-08-21T15:47:48;29.10;99.90
24224;DHT22;12359;49.716;9.212;2022-08-21T15:50:14;28.90;99.90
24224;DHT22;12359;49.716;9.212;2022-08-21T15:52:40;28.90;99.90
24224;DHT22;12359;49.716;9.212;2022-08-21T15:55:07;28.80;99.90
24224;DHT22;12359;49.716;9.212;2022-08-21T15:57:34;28.80;99.90
24224;DHT22;12359;49.716;9.212;2022-08-21T16:00:11;28.80;99.90
24224;DHT22;12359;49.716;9.212;2022-08-21T16:02:41;28.80;99.90
24224;DHT22;12359;49.716;9.212;2022-08-21T16:05:08;28.80;99.90
24224;DHT22;12359;49.716;9.212;2022-08-21T16:07:36;28.70;99.90
24224;DHT22;12359;49.716;9.212;2022-08-21T16:10:02;28.70;99.90
24224;DHT22;12359;49.716;9.212;2022-08-21T16:12:35;28.70;99.90
24224;DHT22;12359;49.716;9.212;2022-08-21T16:15:05;28.80;99.90
24224;DHT22;12359;49.716;9.212;2022-08-21T16:17:34;28.70;99.90
24224;DHT22;12359;49.716;9.212;2022-08-21T16:20:02;28.60;99.90
24224;DHT22;12359;49.716;9.212;2022-08-21T16:22:28;28.50;99.90
24224;DHT22;12359;49.716;9.212;2022-08-21T16:24:54;28.40;99.90
24224;DHT22;12359;49.716;9.212;2022-08-21T16:27:20;28.40;99.90
24224;DHT22;12359;49.716;9.212;2022-08-21T16:29:46;28.40;99.90
24224;DHT22;12359;49.716;9.212;2022-08-21T16:32:13;28.20;99.90
24224;DHT22;12359;49.716;9.212;2022-08-21T16:34:44;28.20;99.90
24224;DHT22;12359;49.716;9.212;2022-08-21T16:37:10;28.10;99.90
24224;DHT22;12359;49.716;9.212;2022-08-21T16:39:35;28.00;99.90
24224;DHT22;12359;49.716;9.212;2022-08-21T16:42:01;28.00;99.90
24224;DHT22;12359;49.716;9.212;2022-08-21T16:44:27;28.00;99.90
24224;DHT22;12359;49.716;9.212;2022-08-21T16:46:53;28.00;99.90
24224;DHT22;12359;49.716;9.212;2022-08-21T16:49:19;27.90;99.90
24224;DHT22;12359;49.716;9.212;2022-08-21T16:51:44;27.80;99.90
24224;DHT22;12359;49.716;9.212;2022-08-21T16:54:10;27.70;99.90
24224;DHT22;12359;49.716;9.212;2022-08-21T16:56:37;27.70;99.90
24224;DHT22;12359;49.716;9.212;2022-08-21T16:59:04;27.60;99.90
24224;DHT22;12359;49.716;9.212;2022-08-21T17:01:32;27.60;99.90
24224;DHT22;12359;49.716;9.212;2022-08-21T17:04:15;27.50;99.90
24224;DHT22;12359;49.716;9.212;2022-08-21T17:06:41;27.40;99.90
24224;DHT22;12359;49.716;9.212;2022-08-21T17:09:08;27.30;99.90
24224;DHT22;12359;49.716;9.212;2022-08-21T17:11:37;27.20;99.90
24224;DHT22;12359;49.716;9.212;2022-08-21T17:14:17;27.10;99.90